Time;durP1;ratioP1;P1;durP2;ratioP2;P2;SDS_P1;SDS_P2;PMS_P1;PMS_P2;Temp;Humidity;BMP_temperature;BMP_pressure;BME280_temperature;BME280_humidity;BME280_pressure;Samples;Min_cycle;Max_cycle;Signal;HPM_P1;HPM_P2
2021/12/03 00:00:43;;;;;;;15.32;6.30;;;;;;;-2.88;90.60;97443.88;2566832;28;20145;-73
2021/12/03 00:01:59;;;;;;;15.38;6.40;;;;;;;-2.89;90.12;97444.72;2566968;28;20054;-72
2021/12/03 00:03:14;;;;;;;13.63;6.63;;;;;;;-2.89;90.32;97446.44;2567157;28;20143;-72
2021/12/03 00:04:30;;;;;;;17.02;6.70;;;;;;;-2.90;90.28;97455.81;2556437;29;20092;-72
2021/12/03 00:05:46;;;;;;;13.82;6.65;;;;;;;-2.94;89.97;97450.66;2560684;28;20062;-72
2021/12/03 00:07:02;;;;;;;14.88;7.43;;;;;;;-2.99;90.43;97454.03;2566964;28;20105;-72
2021/12/03 00:08:18;;;;;;;14.10;6.43;;;;;;;-3.03;89.99;97456.53;2567097;28;20051;-73
2021/12/03 00:09:36;;;;;;;12.73;5.75;;;;;;;-3.06;89.87;97459.06;2566979;28;20051;-72
2021/12/03 00:10:55;;;;;;;16.30;6.78;;;;;;;-3.09;89.66;97467.56;2566931;28;20059;-72
2021/12/03 00:12:11;;;;;;;11.65;5.38;;;;;;;-3.16;89.49;97468.38;2567198;28;20057;-72
2021/12/03 00:13:29;;;;;;;11.00;4.90;;;;;;;-3.14;89.58;97476.91;2567171;28;20094;-72
2021/12/03 00:14:44;;;;;;;11.65;4.65;;;;;;;-3.16;89.60;97468.38;2567026;28;20536;-72
2021/12/03 00:16:01;;;;;;;12.15;4.65;;;;;;;-3.19;88.97;97469.19;2567081;28;20046;-72
2021/12/03 00:17:17;;;;;;;10.68;5.00;;;;;;;-3.18;89.51;97467.50;2567157;28;20134;-72
2021/12/03 00:18:33;;;;;;;12.18;4.32;;;;;;;-3.21;89.19;97468.31;2568343;28;20047;-72
2021/12/03 00:19:48;;;;;;;8.77;4.03;;;;;;;-3.21;88.99;97468.31;2568752;28;20082;-72
2021/12/03 00:21:07;;;;;;;9.45;4.90;;;;;;;-3.26;88.34;97469.97;2569036;28;20512;-72
2021/12/03 00:22:24;;;;;;;12.23;5.07;;;;;;;-3.30;88.64;97474.19;2569000;28;20050;-72
2021/12/03 00:23:40;;;;;;;11.68;4.63;;;;;;;-3.32;88.48;97472.44;2568977;28;20496;-72
2021/12/03 00:24:56;;;;;;;9.82;4.15;;;;;;;-3.29;88.53;97469.91;2568826;28;20050;-72
2021/12/03 00:26:11;;;;;;;11.63;4.63;;;;;;;-3.28;88.07;97471.66;2558156;29;20105;-72
2021/12/03 00:27:27;;;;;;;13.38;4.18;;;;;;;-3.26;88.94;97477.66;2562435;28;20058;-72
2021/12/03 00:28:42;;;;;;;9.88;4.18;;;;;;;-3.23;89.02;97476.81;2569004;28;20481;-71
2021/12/03 00:29:58;;;;;;;10.40;4.47;;;;;;;-3.19;89.41;97479.41;2568957;28;20055;-71
2021/12/03 00:31:15;;;;;;;11.18;5.30;;;;;;;-3.15;89.67;97482.88;2568902;28;20112;-72
2021/12/03 00:32:31;;;;;;;13.35;5.28;;;;;;;-3.12;89.81;97482.91;2568602;28;20100;-71
2021/12/03 00:33:47;;;;;;;10.18;4.70;;;;;;;-3.09;89.35;97487.22;2569013;28;20051;-72
2021/12/03 00:35:03;;;;;;;12.20;5.00;;;;;;;-3.06;89.29;97487.25;2568953;28;20138;-72
2021/12/03 00:36:19;;;;;;;8.75;4.53;;;;;;;-3.06;88.91;97489.81;2568614;28;20085;-72
2021/12/03 00:37:36;;;;;;;16.13;5.40;;;;;;;-3.05;89.02;97499.19;2568848;28;20493;-71
2021/12/03 00:38:55;;;;;;;14.75;6.20;;;;;;;-3.02;89.66;97502.66;2568768;28;20074;-73
2021/12/03 00:40:14;;;;;;;12.68;5.18;;;;;;;-2.96;89.53;97501.00;2568740;28;20489;-71
2021/12/03 00:41:34;;;;;;;14.45;6.10;;;;;;;-2.94;89.98;97496.75;2568610;28;20094;-72
2021/12/03 00:42:51;;;;;;;16.63;6.35;;;;;;;-2.94;89.87;97501.88;2568685;28;20043;-71
2021/12/03 00:44:06;;;;;;;14.10;6.00;;;;;;;-2.93;89.92;97508.72;2568967;28;20042;-71
2021/12/03 00:45:22;;;;;;;12.65;5.38;;;;;;;-2.93;89.94;97511.28;2568584;28;20078;-72
2021/12/03 00:46:37;;;;;;;12.85;5.25;;;;;;;-2.92;90.13;97508.75;2568680;28;20421;-72
2021/12/03 00:47:53;;;;;;;11.55;5.25;;;;;;;-2.93;90.04;97516.41;2568939;28;20079;-71
2021/12/03 00:49:08;;;;;;;12.93;4.65;;;;;;;-2.95;89.96;97518.97;2568466;28;20185;-71
2021/12/03 00:50:25;;;;;;;14.52;5.88;;;;;;;-2.99;90.09;97515.50;2568535;28;20047;-71
2021/12/03 00:51:41;;;;;;;10.35;4.55;;;;;;;-2.99;89.89;97520.63;2568640;28;20086;-71
2021/12/03 00:52:57;;;;;;;11.88;5.13;;;;;;;-3.00;89.69;97513.78;2568616;28;20047;-71
2021/12/03 00:54:13;;;;;;;11.35;5.55;;;;;;;-3.02;89.88;97518.03;2568526;28;20078;-72
2021/12/03 00:55:33;;;;;;;11.57;5.53;;;;;;;-3.04;90.05;97517.16;2568304;28;20125;-71
2021/12/03 00:56:49;;;;;;;11.93;4.55;;;;;;;-3.09;89.65;97526.47;2568760;28;20089;-72
2021/12/03 00:58:04;;;;;;;7.90;3.92;;;;;;;-3.20;89.27;97525.50;2568666;28;20406;-72
2021/12/03 00:59:20;;;;;;;7.78;3.60;;;;;;;-3.24;89.07;97527.16;2568567;28;20051;-72
2021/12/03 01:00:35;;;;;;;9.32;4.22;;;;;;;-3.28;88.86;97533.94;2568549;28;20051;-72
2021/12/03 01:01:51;;;;;;;10.48;3.97;;;;;;;-3.31;89.14;97533.91;2568581;28;20051;-72
2021/12/03 01:03:07;;;;;;;7.97;3.97;;;;;;;-3.36;88.77;97540.66;2568374;28;20058;-72
2021/12/03 01:04:23;;;;;;;10.25;4.20;;;;;;;-3.40;88.54;97544.03;2568459;28;20051;-72
2021/12/03 01:05:38;;;;;;;6.57;3.92;;;;;;;-3.46;88.78;97544.78;2568622;28;20057;-72
2021/12/03 01:06:54;;;;;;;8.35;3.67;;;;;;;-3.48;88.68;97543.91;2568709;28;20051;-72
2021/12/03 01:08:10;;;;;;;10.27;4.50;;;;;;;-3.49;88.70;97543.88;2568470;28;20053;-72
2021/12/03 01:09:25;;;;;;;7.75;3.45;;;;;;;-3.57;88.21;97548.91;2568571;28;20390;-72
2021/12/03 01:10:42;;;;;;;9.32;3.35;;;;;;;-3.62;88.45;97550.56;2568263;28;20047;-72
2021/12/03 01:11:59;;;;;;;9.20;3.40;;;;;;;-3.68;88.32;97551.31;2568540;28;20086;-72
2021/12/03 01:13:14;;;;;;;8.05;3.80;;;;;;;-3.72;88.45;97550.41;2568459;28;20077;-73
2021/12/03 01:14:30;;;;;;;8.00;3.92;;;;;;;-3.76;88.27;97560.59;2568361;28;20058;-72
2021/12/03 01:15:46;;;;;;;8.48;3.92;;;;;;;-3.76;88.99;97560.59;2568484;28;20051;-72
2021/12/03 01:17:03;;;;;;;8.55;4.07;;;;;;;-3.79;88.64;97557.97;2568217;28;20094;-72
2021/12/03 01:18:19;;;;;;;7.85;3.65;;;;;;;-3.79;88.84;97560.53;2568291;28;20058;-72
2021/12/03 01:19:35;;;;;;;10.50;4.05;;;;;;;-3.82;88.93;97558.81;2568507;28;20141;-72
2021/12/03 01:20:51;;;;;;;8.35;3.95;;;;;;;-3.84;88.49;97571.56;2568240;28;20065;-72
2021/12/03 01:22:07;;;;;;;5.95;2.95;;;;;;;-3.91;87.94;97572.31;2568530;28;20101;-72
2021/12/03 01:23:23;;;;;;;7.20;3.20;;;;;;;-3.97;88.05;97573.06;2568235;28;20076;-72
2021/12/03 01:24:38;;;;;;;6.82;3.17;;;;;;;-4.06;86.94;97572.03;2568524;28;20050;-72
2021/12/03 01:25:55;;;;;;;7.22;3.08;;;;;;;-4.15;87.16;97580.44;2568343;28;20054;-72
2021/12/03 01:27:10;;;;;;;5.72;2.88;;;;;;;-4.20;88.00;97572.69;2568193;28;20047;-72
2021/12/03 01:28:27;;;;;;;7.63;3.13;;;;;;;-4.20;88.42;97579.50;2568444;28;20058;-72
2021/12/03 01:29:43;;;;;;;6.15;3.05;;;;;;;-4.19;88.28;97582.09;2567820;28;20532;-72
2021/12/03 01:30:59;;;;;;;6.88;3.40;;;;;;;-4.16;88.18;97581.28;2568235;28;20101;-73
2021/12/03 01:32:15;;;;;;;8.88;3.45;;;;;;;-4.16;87.87;97591.50;2568056;28;20129;-72
2021/12/03 01:33:31;;;;;;;8.80;3.28;;;;;;;-4.14;88.06;97595.81;2568301;28;20482;-72
2021/12/03 01:34:47;;;;;;;6.28;3.45;;;;;;;-4.15;87.94;97591.53;2568229;28;20097;-73
2021/12/03 01:36:03;;;;;;;9.38;4.13;;;;;;;-4.14;88.18;97589.81;2568314;28;20042;-72
2021/12/03 01:37:19;;;;;;;8.50;4.05;;;;;;;-4.14;88.47;97593.25;2567920;28;20054;-72
2021/12/03 01:38:34;;;;;;;7.78;3.65;;;;;;;-4.15;88.22;97594.09;2568132;28;20050;-72
2021/12/03 01:39:51;;;;;;;9.20;3.63;;;;;;;-4.13;88.46;97587.31;2568325;28;20054;-72
2021/12/03 01:41:07;;;;;;;7.85;3.95;;;;;;;-4.08;88.29;97594.19;2568056;28;20082;-72
2021/12/03 01:42:23;;;;;;;10.10;3.78;;;;;;;-4.12;87.87;97599.25;2567602;28;20106;-72
2021/12/03 01:43:39;;;;;;;7.28;3.72;;;;;;;-4.15;88.27;97595.78;2567983;28;20062;-72
2021/12/03 01:44:55;;;;;;;10.07;3.72;;;;;;;-4.16;88.02;97592.38;2568016;28;20459;-73
2021/12/03 01:46:12;;;;;;;6.75;3.28;;;;;;;-4.18;87.85;97588.94;2568154;28;20133;-73
2021/12/03 01:47:27;;;;;;;7.68;3.38;;;;;;;-4.20;87.69;97593.13;2568126;28;20089;-72
2021/12/03 01:48:43;;;;;;;8.00;3.47;;;;;;;-4.22;88.16;97596.53;2567949;28;20082;-74
2021/12/03 01:49:58;;;;;;;7.38;3.17;;;;;;;-4.27;87.69;97593.88;2568155;28;20121;-72
2021/12/03 01:51:14;;;;;;;7.32;3.53;;;;;;;-4.28;88.20;97593.00;2568246;28;20213;-72
2021/12/03 01:52:30;;;;;;;5.50;2.80;;;;;;;-4.28;87.85;97603.22;2568048;28;20058;-72
2021/12/03 01:53:45;;;;;;;6.45;3.10;;;;;;;-4.31;88.18;97598.06;2568101;28;20051;-72
2021/12/03 01:55:02;;;;;;;6.20;2.90;;;;;;;-4.38;87.13;97601.38;2568175;28;20057;-72
2021/12/03 01:56:19;;;;;;;6.38;3.00;;;;;;;-4.40;87.83;97603.00;2567863;28;20493;-72
2021/12/03 01:57:36;;;;;;;10.27;3.28;;;;;;;-4.40;88.04;97600.44;2568010;28;20046;-72
2021/12/03 01:58:52;;;;;;;7.50;2.75;;;;;;;-4.39;88.25;97604.75;2568179;28;20070;-72
2021/12/03 02:00:17;;;;;;;7.10;3.53;;;;;;;-4.43;88.13;97606.38;2568112;28;20105;-74
2021/12/03 02:01:33;;;;;;;6.45;2.70;;;;;;;-4.48;87.89;97607.97;2567968;28;20497;-73
2021/12/03 02:02:50;;;;;;;6.88;3.38;;;;;;;-4.53;87.65;97607.03;2568008;28;20490;-72
2021/12/03 02:04:05;;;;;;;6.72;3.20;;;;;;;-4.51;87.74;97607.94;2567966;28;20132;-72
2021/12/03 02:05:21;;;;;;;5.93;2.38;;;;;;;-4.53;87.93;97609.59;2567612;28;20588;-72
2021/12/03 02:06:38;;;;;;;7.05;2.78;;;;;;;-4.57;88.10;97616.34;2568057;28;20054;-72
2021/12/03 02:07:53;;;;;;;5.90;2.90;;;;;;;-4.56;88.10;97612.09;2567936;28;20058;-73
2021/12/03 02:09:09;;;;;;;4.45;2.35;;;;;;;-4.57;88.13;97608.66;2567890;28;20054;-72
2021/12/03 02:10:25;;;;;;;5.47;2.80;;;;;;;-4.56;88.65;97607.00;2567836;28;20413;-73
2021/12/03 02:11:41;;;;;;;4.93;2.53;;;;;;;-4.36;88.33;97621.81;2567848;28;20051;-72
2021/12/03 02:12:56;;;;;;;5.35;2.30;;;;;;;-4.40;88.00;97615.78;2567635;28;20117;-72
2021/12/03 02:14:12;;;;;;;4.43;2.40;;;;;;;-4.46;87.75;97614.00;2567743;28;20051;-72
2021/12/03 02:15:28;;;;;;;4.25;2.22;;;;;;;-4.50;87.43;97612.19;2567808;28;20567;-72
2021/12/03 02:16:45;;;;;;;9.20;2.92;;;;;;;-4.52;88.07;97618.97;2567885;28;20051;-72
2021/12/03 02:18:01;;;;;;;6.97;2.38;;;;;;;-4.58;87.44;97619.72;2567998;28;20485;-72
2021/12/03 02:19:17;;;;;;;4.63;2.70;;;;;;;-4.60;87.61;97618.84;2567990;28;20058;-73
2021/12/03 02:20:33;;;;;;;4.10;2.00;;;;;;;-4.64;87.13;97618.75;2567449;28;20109;-72
2021/12/03 02:21:49;;;;;;;5.68;2.05;;;;;;;-4.69;87.28;97618.66;2567874;28;20065;-72
2021/12/03 02:23:05;;;;;;;5.40;2.33;;;;;;;-4.78;87.15;97629.56;2567584;28;20055;-72
2021/12/03 02:24:21;;;;;;;4.15;2.13;;;;;;;-4.79;87.17;97624.44;2567934;28;20387;-72
2021/12/03 02:25:37;;;;;;;4.75;2.30;;;;;;;-4.79;87.86;97627.84;2567936;28;20125;-71
2021/12/03 02:26:53;;;;;;;6.75;2.85;;;;;;;-4.87;86.64;97626.84;2567725;28;20098;-72
2021/12/03 02:28:09;;;;;;;5.82;2.45;;;;;;;-4.88;86.86;97637.88;2567757;28;20061;-72
2021/12/03 02:29:26;;;;;;;5.15;2.45;;;;;;;-4.91;87.33;97631.00;2567583;28;20860;-72
2021/12/03 02:30:42;;;;;;;6.88;2.65;;;;;;;-4.93;87.44;97636.91;2567526;28;20053;-72
2021/12/03 02:31:58;;;;;;;7.25;2.90;;;;;;;-4.96;87.38;97628.38;2567882;28;20050;-72
2021/12/03 02:33:14;;;;;;;10.13;3.67;;;;;;;-4.96;87.70;97630.91;2567569;28;20066;-72
2021/12/03 02:34:30;;;;;;;5.88;2.75;;;;;;;-4.98;87.78;97634.25;2567874;28;20057;-72
2021/12/03 02:35:46;;;;;;;8.57;3.47;;;;;;;-4.98;87.59;97635.13;2557017;29;20047;-72
2021/12/03 02:37:04;;;;;;;13.05;3.65;;;;;;;-4.95;88.18;97634.34;2561365;28;20124;-72
2021/12/03 02:38:22;;;;;;;7.97;3.38;;;;;;;-4.93;87.95;97636.91;2567645;28;20057;-72
2021/12/03 02:39:37;;;;;;;6.75;3.50;;;;;;;-4.97;87.21;97638.53;2567381;28;20497;-72
2021/12/03 02:40:54;;;;;;;8.38;3.78;;;;;;;-4.96;87.60;97638.56;2567497;28;20082;-72
2021/12/03 02:42:10;;;;;;;7.63;3.50;;;;;;;-4.96;87.47;97640.25;2566880;28;20047;-72
2021/12/03 02:43:26;;;;;;;6.82;3.38;;;;;;;-4.93;87.88;97642.00;2567353;28;20421;-72
2021/12/03 02:44:42;;;;;;;7.28;3.90;;;;;;;-4.97;87.54;97641.09;2567617;28;20494;-72
2021/12/03 02:45:58;;;;;;;6.32;3.35;;;;;;;-5.03;86.60;97640.97;2567596;28;20157;-72
2021/12/03 02:47:13;;;;;;;8.85;3.53;;;;;;;-5.06;87.38;97641.75;2567712;28;20051;-72
2021/12/03 02:48:31;;;;;;;8.07;4.22;;;;;;;-5.07;87.11;97644.28;2567636;28;20059;-72
2021/12/03 02:49:47;;;;;;;9.23;3.95;;;;;;;-5.12;87.21;97645.03;2567361;28;20085;-72
2021/12/03 02:51:05;;;;;;;10.35;3.97;;;;;;;-5.16;86.74;97639.88;2567606;28;20081;-72
2021/12/03 02:52:20;;;;;;;8.70;3.85;;;;;;;-5.19;86.49;97639.78;2567540;28;20062;-72
2021/12/03 02:53:37;;;;;;;7.43;3.92;;;;;;;-5.18;86.96;97641.50;2567529;28;20057;-72
2021/12/03 02:54:53;;;;;;;7.72;3.30;;;;;;;-5.22;86.45;97642.25;2567411;28;20050;-72
2021/12/03 02:56:08;;;;;;;7.18;3.60;;;;;;;-5.25;86.49;97638.81;2567601;28;20055;-72
2021/12/03 02:57:24;;;;;;;8.10;3.20;;;;;;;-5.27;86.32;97644.72;2567482;28;20112;-72
2021/12/03 02:58:40;;;;;;;5.70;3.15;;;;;;;-5.28;86.68;97648.09;2567527;28;20057;-72
2021/12/03 02:59:56;;;;;;;9.02;3.30;;;;;;;-5.28;86.96;97645.53;2567265;28;20053;-72
2021/12/03 03:01:12;;;;;;;9.05;3.53;;;;;;;-5.32;86.15;97646.31;2567500;28;20411;-72
2021/12/03 03:02:27;;;;;;;8.23;3.58;;;;;;;-5.33;86.54;97652.25;2567325;28;20130;-72
2021/12/03 03:03:43;;;;;;;7.38;3.03;;;;;;;-5.33;86.64;97647.97;2567340;28;20390;-72
2021/12/03 03:04:58;;;;;;;6.97;3.08;;;;;;;-5.34;86.55;97653.91;2567231;28;20439;-72
2021/12/03 03:06:14;;;;;;;8.05;3.20;;;;;;;-5.35;86.47;97649.66;2567361;28;20457;-72
2021/12/03 03:07:31;;;;;;;7.35;3.15;;;;;;;-5.36;86.54;97652.19;2567585;28;20552;-72
2021/12/03 03:08:48;;;;;;;8.70;3.08;;;;;;;-5.36;86.55;97644.53;2567216;28;20058;-72
2021/12/03 03:10:08;;;;;;;6.22;2.70;;;;;;;-5.39;86.84;97651.25;2567191;28;20047;-72
2021/12/03 03:11:24;;;;;;;7.22;2.97;;;;;;;-5.39;86.98;97647.84;2567399;28;20122;-71
2021/12/03 03:12:40;;;;;;;5.45;2.70;;;;;;;-5.41;86.92;97645.25;2567373;28;20516;-72
2021/12/03 03:13:56;;;;;;;7.65;2.38;;;;;;;-5.43;86.43;97646.06;2567305;28;20409;-72
2021/12/03 03:15:12;;;;;;;4.95;2.63;;;;;;;-5.44;86.16;97657.97;2567595;28;20051;-72
2021/12/03 03:16:28;;;;;;;5.15;2.63;;;;;;;-5.50;86.14;97660.38;2567261;28;20058;-71
2021/12/03 03:17:45;;;;;;;6.05;3.03;;;;;;;-5.50;85.85;97668.03;2567379;28;20495;-72
2021/12/03 03:19:21;;;;;;;4.38;2.60;;;;;;;-5.55;86.55;97655.16;2567226;28;20066;-72
2021/12/03 03:20:39;;;;;;;6.35;2.78;;;;;;;-5.57;86.70;97658.50;2567369;28;20498;-71
2021/12/03 03:21:55;;;;;;;6.75;2.63;;;;;;;-5.55;86.73;97656.84;2567315;28;20541;-72
2021/12/03 03:23:13;;;;;;;5.97;2.42;;;;;;;-5.57;86.83;97656.81;2567279;28;20074;-72
2021/12/03 03:24:29;;;;;;;5.82;2.70;;;;;;;-5.60;86.46;97659.28;2567477;28;20050;-72
2021/12/03 03:25:46;;;;;;;5.30;2.88;;;;;;;-5.60;86.53;97669.47;2567182;28;20054;-72
2021/12/03 03:27:02;;;;;;;6.40;2.67;;;;;;;-5.61;86.19;97669.47;2567351;28;20057;-72
2021/12/03 03:28:21;;;;;;;5.65;2.50;;;;;;;-5.64;86.33;97661.75;2567340;28;20130;-72
2021/12/03 03:29:38;;;;;;;4.40;2.50;;;;;;;-5.68;86.01;97663.34;2567116;28;20049;-72
2021/12/03 03:30:56;;;;;;;5.47;2.20;;;;;;;-5.69;86.49;97664.19;2567108;28;20075;-72
2021/12/03 03:32:11;;;;;;;4.60;2.47;;;;;;;-5.71;86.45;97659.03;2567417;28;20489;-72
2021/12/03 03:33:28;;;;;;;8.85;3.42;;;;;;;-5.71;87.13;97661.59;2567151;28;20058;-72
2021/12/03 03:34:44;;;;;;;7.53;3.10;;;;;;;-5.70;86.84;97658.22;2567172;28;20065;-72
2021/12/03 03:36:00;;;;;;;4.43;2.72;;;;;;;-5.67;86.69;97662.53;2567158;28;20545;-72
2021/12/03 03:37:16;;;;;;;6.38;2.97;;;;;;;-5.71;86.66;97661.59;2567204;28;20051;-73
2021/12/03 03:38:32;;;;;;;5.93;2.53;;;;;;;-5.68;86.23;97660.81;2567114;28;20066;-72
2021/12/03 03:39:48;;;;;;;8.82;3.70;;;;;;;-5.68;85.75;97671.84;2567264;28;20051;-72
2021/12/03 03:41:04;;;;;;;9.52;2.97;;;;;;;-5.76;85.86;97663.16;2566898;28;20412;-72
2021/12/03 03:42:19;;;;;;;6.30;2.63;;;;;;;-5.79;86.14;97674.97;2567238;28;20157;-72
2021/12/03 03:43:35;;;;;;;7.18;3.17;;;;;;;-5.80;86.30;97663.91;2567266;28;20082;-72
2021/12/03 03:44:51;;;;;;;7.28;3.00;;;;;;;-5.79;86.65;97682.63;2567062;28;20080;-72
2021/12/03 03:46:06;;;;;;;6.97;3.28;;;;;;;-5.79;87.21;97683.50;2567259;28;20058;-72
2021/12/03 03:47:22;;;;;;;8.35;3.22;;;;;;;-5.79;86.74;97680.06;2567325;28;20058;-72
2021/12/03 03:48:38;;;;;;;7.40;3.35;;;;;;;-5.77;86.89;97680.97;2567181;28;20125;-72
2021/12/03 03:49:54;;;;;;;9.27;3.47;;;;;;;-5.80;86.77;97681.75;2567102;28;20105;-72
2021/12/03 03:51:10;;;;;;;8.90;3.35;;;;;;;-5.79;86.69;97695.38;2567073;28;20105;-72
2021/12/03 03:52:28;;;;;;;9.52;3.47;;;;;;;-5.82;86.97;97691.94;2567306;28;20074;-72
2021/12/03 03:53:43;;;;;;;7.45;3.53;;;;;;;-5.85;86.51;97685.88;2568740;28;20473;-72
2021/12/03 03:54:59;;;;;;;6.93;3.10;;;;;;;-5.87;86.35;97688.38;2569355;28;20066;-72
2021/12/03 03:56:15;;;;;;;7.80;3.10;;;;;;;-5.89;86.38;97692.59;2569030;28;20043;-72
2021/12/03 03:57:31;;;;;;;8.32;3.45;;;;;;;-5.88;85.96;97691.75;2569292;28;20449;-72
2021/12/03 03:58:46;;;;;;;7.90;3.42;;;;;;;-5.92;86.17;97692.50;2569269;28;20078;-72
2021/12/03 04:00:05;;;;;;;11.80;3.72;;;;;;;-5.93;86.03;97695.03;2569001;28;20059;-72
2021/12/03 04:01:21;;;;;;;9.15;3.75;;;;;;;-5.98;85.81;97694.91;2569004;28;20109;-72
2021/12/03 04:02:38;;;;;;;7.85;4.00;;;;;;;-6.02;86.11;97695.69;2569044;28;20086;-73
2021/12/03 04:03:53;;;;;;;7.72;3.58;;;;;;;-6.03;86.58;97699.94;2569138;28;20051;-72
2021/12/03 04:05:10;;;;;;;11.93;4.32;;;;;;;-6.06;86.65;97698.97;2569163;28;20097;-72
2021/12/03 04:06:26;;;;;;;13.27;4.07;;;;;;;-6.04;87.10;97699.88;2568971;28;20078;-72
2021/12/03 04:07:42;;;;;;;11.93;4.35;;;;;;;-6.09;86.78;97699.75;2569174;28;20062;-72
2021/12/03 04:08:57;;;;;;;12.35;4.55;;;;;;;-6.07;87.37;97702.34;2568869;28;20093;-72
2021/12/03 04:10:14;;;;;;;9.18;3.78;;;;;;;-6.05;87.35;97711.78;2569009;28;20085;-72
2021/12/03 04:11:29;;;;;;;12.63;4.20;;;;;;;-6.02;87.21;97700.78;2569039;28;20138;-72
2021/12/03 04:12:45;;;;;;;11.48;3.85;;;;;;;-6.07;86.64;97707.44;2569172;28;20050;-72
2021/12/03 04:14:01;;;;;;;8.13;3.78;;;;;;;-6.07;87.22;97710.88;2569139;28;20333;-72
2021/12/03 04:15:18;;;;;;;10.15;4.00;;;;;;;-6.06;87.29;97706.63;2568204;28;20065;-72
2021/12/03 04:16:33;;;;;;;11.80;4.45;;;;;;;-6.06;87.30;97715.16;2568471;28;20058;-72
2021/12/03 04:17:49;;;;;;;9.40;4.63;;;;;;;-6.08;87.04;97714.22;2569221;28;20054;-72
2021/12/03 04:19:06;;;;;;;11.30;3.75;;;;;;;-6.07;87.00;97713.41;2569233;28;20055;-73
2021/12/03 04:20:22;;;;;;;8.27;3.75;;;;;;;-6.10;87.32;97721.84;2568710;28;20055;-72
2021/12/03 04:21:37;;;;;;;10.57;3.67;;;;;;;-6.09;87.48;97715.03;2568989;28;20463;-72
2021/12/03 04:22:53;;;;;;;12.38;3.80;;;;;;;-6.05;87.85;97724.50;2568986;28;20102;-72
2021/12/03 04:24:09;;;;;;;11.15;3.97;;;;;;;-6.05;87.72;97727.06;2569008;28;20061;-72
2021/12/03 04:25:25;;;;;;;8.95;3.40;;;;;;;-6.04;88.01;97731.34;2568777;28;20083;-76
2021/12/03 04:26:40;;;;;;;8.07;3.85;;;;;;;-6.03;87.48;97721.97;2569045;28;20054;-72
2021/12/03 04:27:56;;;;;;;9.27;3.40;;;;;;;-6.01;87.83;97725.44;2569033;28;20481;-73
2021/12/03 04:29:12;;;;;;;7.32;3.35;;;;;;;-5.98;87.52;97728.06;2568954;28;20074;-72
2021/12/03 04:30:29;;;;;;;6.82;3.47;;;;;;;-5.97;87.69;97732.31;2568468;28;20050;-72
2021/12/03 04:31:45;;;;;;;5.45;2.78;;;;;;;-6.01;87.40;97739.03;2568920;28;20065;-72
2021/12/03 04:33:02;;;;;;;6.75;2.80;;;;;;;-6.05;87.50;97733.81;2568675;28;20596;-72
2021/12/03 04:34:17;;;;;;;5.88;2.78;;;;;;;-6.07;87.05;97738.91;2568955;28;20104;-72
2021/12/03 04:35:34;;;;;;;5.93;3.13;;;;;;;-6.12;86.81;97732.81;2568912;28;20051;-72
2021/12/03 04:36:49;;;;;;;6.97;3.00;;;;;;;-6.14;87.50;97740.44;2568319;28;20042;-72
2021/12/03 04:38:05;;;;;;;7.43;3.38;;;;;;;-6.15;87.36;97736.13;2566539;28;20413;-72
2021/12/03 04:39:21;;;;;;;9.98;3.80;;;;;;;-6.18;87.06;97743.69;2568395;28;20417;-72
2021/12/03 04:40:38;;;;;;;8.48;3.58;;;;;;;-6.21;86.96;97745.31;2567778;28;20046;-72
2021/12/03 04:41:54;;;;;;;8.98;3.92;;;;;;;-6.23;87.07;97745.25;2568683;28;20788;-72
2021/12/03 04:43:10;;;;;;;10.00;4.07;;;;;;;-6.25;86.95;97754.56;2568779;28;20146;-72
2021/12/03 04:44:25;;;;;;;8.60;3.35;;;;;;;-6.27;87.25;97754.50;2568745;28;20678;-72
2021/12/03 04:45:41;;;;;;;7.57;3.53;;;;;;;-6.30;87.29;97762.06;2568207;28;20133;-71
2021/12/03 04:46:57;;;;;;;8.68;3.80;;;;;;;-6.29;87.05;97755.25;2568850;28;20057;-72
2021/12/03 04:48:13;;;;;;;9.82;4.75;;;;;;;-6.30;86.77;97761.19;2568967;28;20409;-72
2021/12/03 04:49:30;;;;;;;11.65;4.75;;;;;;;-6.33;87.16;97764.53;2568486;28;20130;-71
2021/12/03 04:50:46;;;;;;;11.13;4.68;;;;;;;-6.29;86.86;97768.88;2568422;28;20058;-73
2021/12/03 04:52:03;;;;;;;16.05;5.05;;;;;;;-6.26;87.17;97770.66;2568831;28;20058;-71
2021/12/03 04:53:19;;;;;;;13.95;5.30;;;;;;;-6.25;87.40;97770.69;2567608;28;20126;-72
2021/12/03 04:54:34;;;;;;;12.63;5.55;;;;;;;-6.21;87.49;97779.28;2567879;28;20409;-71
2021/12/03 04:55:51;;;;;;;12.07;4.32;;;;;;;-6.21;87.25;97776.72;2568676;28;20058;-74
2021/12/03 04:57:06;;;;;;;11.13;4.72;;;;;;;-6.19;87.41;97782.72;2568610;28;20417;-72
2021/12/03 04:58:22;;;;;;;12.55;4.35;;;;;;;-6.19;87.27;97782.72;2568248;28;20074;-74
2021/12/03 04:59:37;;;;;;;9.45;4.35;;;;;;;-6.19;87.37;97782.72;2568663;28;20146;-75
2021/12/03 05:00:55;;;;;;;10.52;3.78;;;;;;;-6.18;87.32;97787.00;2568236;28;20050;-73
2021/12/03 05:02:11;;;;;;;13.57;4.55;;;;;;;-6.18;87.75;97784.47;2568583;28;20166;-75
2021/12/03 05:03:29;;;;;;;11.82;4.50;;;;;;;-6.12;87.24;97774.44;2567845;28;20110;-75
2021/12/03 05:04:45;;;;;;;10.70;4.88;;;;;;;-6.06;87.50;97783.06;2567319;28;20047;-75
2021/12/03 05:06:03;;;;;;;12.43;4.50;;;;;;;-6.08;87.91;97782.19;2568541;28;20054;-74
2021/12/03 05:08:52;;;;;;;8.13;3.72;;;;;;;-6.16;87.36;97787.91;2568518;28;20054;-74
2021/12/03 05:10:09;;;;;;;13.05;4.90;;;;;;;-6.20;87.79;97791.19;2568517;28;20047;-74
2021/12/03 05:11:26;;;;;;;10.55;4.45;;;;;;;-6.23;87.37;97788.56;2568235;28;20153;-74
2021/12/03 05:12:42;;;;;;;12.50;5.40;;;;;;;-6.29;86.90;97798.56;2568680;28;20049;-74
2021/12/03 05:13:57;;;;;;;11.98;5.03;;;;;;;-6.32;87.32;97799.38;2568590;28;20047;-74
2021/12/03 05:15:13;;;;;;;12.63;4.50;;;;;;;-6.33;87.78;97807.84;2557594;29;20452;-75
2021/12/03 05:16:29;;;;;;;10.63;4.68;;;;;;;-6.35;87.56;97799.28;2562048;28;20139;-75
2021/12/03 05:17:44;;;;;;;11.65;4.18;;;;;;;-6.34;87.61;97795.03;2568447;28;20051;-73
2021/12/03 05:19:00;;;;;;;10.88;4.45;;;;;;;-6.34;87.91;97801.03;2568509;28;20515;-74
2021/12/03 05:20:15;;;;;;;10.85;4.10;;;;;;;-6.33;87.77;97801.88;2568452;28;20110;-73
2021/12/03 05:21:31;;;;;;;10.68;4.53;;;;;;;-6.37;88.08;97808.53;2568357;28;20387;-73
2021/12/03 05:22:47;;;;;;;8.90;3.75;;;;;;;-6.40;87.68;97809.34;2568542;28;20047;-73
2021/12/03 05:24:03;;;;;;;10.10;4.20;;;;;;;-6.43;87.35;97811.78;2568551;28;20042;-73
2021/12/03 05:25:20;;;;;;;13.82;4.47;;;;;;;-6.48;87.44;97813.34;2568468;28;20050;-72
2021/12/03 05:26:38;;;;;;;11.70;4.55;;;;;;;-6.51;87.41;97813.25;2568397;28;20117;-73
2021/12/03 05:27:54;;;;;;;10.98;4.60;;;;;;;-6.52;87.64;97816.63;2568295;28;20050;-72
2021/12/03 05:29:10;;;;;;;8.48;3.95;;;;;;;-6.52;87.51;97820.00;2568395;28;20058;-73
2021/12/03 05:30:27;;;;;;;11.07;4.70;;;;;;;-6.50;87.39;97822.63;2568340;28;20061;-73
2021/12/03 05:31:42;;;;;;;9.77;4.70;;;;;;;-6.53;87.36;97823.38;2567984;28;20062;-74
2021/12/03 05:32:58;;;;;;;10.65;3.97;;;;;;;-6.52;87.24;97826.81;2568213;28;20504;-74
2021/12/03 05:34:15;;;;;;;10.68;4.68;;;;;;;-6.58;87.09;97832.56;2568558;28;20046;-74
2021/12/03 05:35:31;;;;;;;11.52;4.57;;;;;;;-6.59;87.31;97832.50;2568079;28;20138;-73
2021/12/03 05:36:47;;;;;;;12.23;4.88;;;;;;;-6.64;86.65;97829.81;2568282;28;20083;-74
2021/12/03 05:38:03;;;;;;;9.25;4.72;;;;;;;-6.62;87.15;97837.53;2568029;28;20157;-73
2021/12/03 05:39:18;;;;;;;10.43;4.57;;;;;;;-6.64;87.47;97836.63;2568198;28;20054;-73
2021/12/03 05:40:34;;;;;;;9.13;4.13;;;;;;;-6.64;87.23;97846.81;2567511;28;20549;-74
2021/12/03 05:41:50;;;;;;;8.80;4.15;;;;;;;-6.67;87.28;97845.91;2568341;28;20065;-74
2021/12/03 05:43:05;;;;;;;6.88;3.60;;;;;;;-6.68;86.87;97846.72;2568046;28;20043;-73
2021/12/03 05:44:21;;;;;;;9.73;3.22;;;;;;;-6.65;87.32;97851.03;2568392;28;20061;-74
2021/12/03 05:45:37;;;;;;;7.93;4.20;;;;;;;-6.71;87.07;97861.88;2568269;28;20054;-74
2021/12/03 05:46:52;;;;;;;7.63;3.63;;;;;;;-6.76;87.07;97857.47;2568141;28;20192;-73
2021/12/03 05:48:08;;;;;;;6.95;3.28;;;;;;;-6.76;86.79;97858.34;2568276;28;20046;-73
2021/12/03 05:49:24;;;;;;;9.50;3.88;;;;;;;-6.76;87.11;97865.97;2568122;28;20535;-74
2021/12/03 05:50:41;;;;;;;7.93;3.28;;;;;;;-6.79;87.11;97868.44;2567913;28;20054;-74
2021/12/03 05:51:57;;;;;;;10.10;4.28;;;;;;;-6.81;86.89;97860.72;2568092;28;20062;-73
2021/12/03 05:53:13;;;;;;;10.45;4.03;;;;;;;-6.74;86.68;97873.66;2567468;28;20057;-73
2021/12/03 05:54:29;;;;;;;8.85;4.13;;;;;;;-6.66;87.07;97879.84;2567902;28;20106;-73
2021/12/03 05:55:45;;;;;;;13.25;5.55;;;;;;;-6.55;87.06;97875.94;2557264;29;20509;-74
2021/12/03 05:57:00;;;;;;;15.52;5.63;;;;;;;-6.59;87.30;97879.22;2550865;29;20047;-73
2021/12/03 05:58:17;;;;;;;13.40;5.78;;;;;;;-6.63;87.55;97884.19;2561341;28;20082;-74